Time;durP1;ratioP1;P1;durP2;ratioP2;P2;SDS_P1;SDS_P2;PMS_P1;PMS_P2;Temp;Humidity;BMP_temperature;BMP_pressure;BME280_temperature;BME280_humidity;BME280_pressure;Samples;Min_cycle;Max_cycle;Signal;HPM_P1;HPM_P2
2023/11/18 00:02:19;;;;;;;;;;;;;;;3.86;98.48;100457.49;110203;1278;22396;-76
2023/11/18 00:04:49;;;;;;;;;;;;;;;3.86;98.67;100454.73;110231;1266;22326;-76
2023/11/18 00:07:20;;;;;;;;;;;;;;;3.86;98.76;100452.92;110261;1277;22410;-76
2023/11/18 00:09:50;;;;;;;;;;;;;;;3.85;99.03;100456.25;107596;1277;3531716;-76
2023/11/18 00:12:20;;;;;;;;;;;;;;;3.86;99.03;100456.88;110261;1276;22539;-75
2023/11/18 00:14:50;;;;;;;;;;;;;;;3.85;99.24;100457.45;110253;1277;23419;-76
2023/11/18 00:17:22;;;;;;;;;;;;;;;3.85;99.36;100461.62;110209;1278;23164;-75
2023/11/18 00:19:53;;;;;;;;;;;;;;;3.85;99.37;100461.61;110245;1271;22363;-76
2023/11/18 00:22:23;;;;;;;;;;;;;;;3.85;99.41;100460.98;110321;1277;22388;-77
2023/11/18 00:24:53;;;;;;;;;;;;;;;3.86;99.53;100456.95;110271;1277;23078;-77
2023/11/18 00:27:25;;;;;;;;;;;;;;;3.86;99.57;100459.00;110280;1277;22725;-77
2023/11/18 00:29:58;;;;;;;;;;;;;;;3.86;99.80;100459.55;110246;1267;22386;-77
2023/11/18 00:32:31;;;;;;;;;;;;;;;3.85;99.74;100463.03;110271;1275;22403;-77
2023/11/18 00:35:01;;;;;;;;;;;;;;;3.86;99.70;100464.06;109044;1273;24241;-77
2023/11/18 00:37:31;;;;;;;;;;;;;;;3.86;99.90;100469.97;107578;1271;22638;-77
2023/11/18 00:40:02;;;;;;;;;;;;;;;3.86;99.95;100472.17;107587;1265;22559;-77
2023/11/18 00:42:31;;;;;;;;;;;;;;;3.86;99.99;100478.89;107506;1277;22505;-76
2023/11/18 00:45:02;;;;;;;;;;;;;;;3.85;100.00;100481.41;107522;1269;22528;-77
2023/11/18 00:47:32;;;;;;;;;;;;;;;3.85;100.00;100487.50;107597;1269;22505;-78
2023/11/18 00:50:03;;;;;;;;;;;;;;;3.83;100.00;100484.86;107636;1277;27099;-77
2023/11/18 00:52:33;;;;;;;;;;;;;;;3.83;100.00;100487.30;107528;1277;22523;-79
2023/11/18 00:55:03;;;;;;;;;;;;;;;3.82;100.00;100486.86;107578;1269;25397;-78
2023/11/18 00:57:34;;;;;;;;;;;;;;;3.81;100.00;100488.38;110250;1277;23185;-78
2023/11/18 01:00:04;;;;;;;;;;;;;;;3.80;100.00;100488.17;110176;1277;22483;-77
2023/11/18 01:02:35;;;;;;;;;;;;;;;3.78;100.00;100486.23;110265;1269;22466;-78
2023/11/18 01:05:07;;;;;;;;;;;;;;;3.78;100.00;100489.33;110263;1270;22449;-78
2023/11/18 01:07:37;;;;;;;;;;;;;;;3.76;100.00;100491.41;110217;1270;23422;-79
2023/11/18 01:10:09;;;;;;;;;;;;;;;3.75;100.00;100498.28;110255;1274;22345;-78
2023/11/18 01:12:41;;;;;;;;;;;;;;;3.75;100.00;100498.28;110228;1275;22575;-81
2023/11/18 01:15:14;;;;;;;;;;;;;;;3.77;100.00;100499.75;110268;1270;23146;-79
2023/11/18 01:17:48;;;;;;;;;;;;;;;3.77;100.00;100502.83;110314;1277;22409;-78
2023/11/18 01:20:38;;;;;;;;;;;;;;;3.76;100.00;100508.67;110255;1261;22483;-78
2023/11/18 01:23:09;;;;;;;;;;;;;;;3.76;100.00;100512.70;110289;1269;22435;-79
2023/11/18 01:25:40;;;;;;;;;;;;;;;3.76;100.00;100517.38;110255;1277;22353;-78
2023/11/18 01:28:11;;;;;;;;;;;;;;;3.75;100.00;100515.42;110289;1273;22429;-78
2023/11/18 01:30:44;;;;;;;;;;;;;;;3.75;100.00;100519.76;110280;1277;22383;-78
2023/11/18 01:33:15;;;;;;;;;;;;;;;3.74;100.00;100528.36;110274;1270;22680;-78
2023/11/18 01:35:45;;;;;;;;;;;;;;;3.73;100.00;100526.25;110252;1277;22343;-79
2023/11/18 01:38:15;;;;;;;;;;;;;;;3.73;100.00;100526.42;110208;1276;22418;-80
2023/11/18 01:40:47;;;;;;;;;;;;;;;3.72;100.00;100525.49;110276;1277;23411;-79
2023/11/18 01:43:17;;;;;;;;;;;;;;;3.71;100.00;100523.14;110139;1264;22403;-78
2023/11/18 01:45:48;;;;;;;;;;;;;;;3.72;100.00;100528.33;110269;1277;22358;-78
2023/11/18 01:48:18;;;;;;;;;;;;;;;3.72;100.00;100529.21;110246;1277;22410;-78
2023/11/18 01:50:47;;;;;;;;;;;;;;;3.72;100.00;100531.34;110268;1273;22542;-77
2023/11/18 01:53:17;;;;;;;;;;;;;;;3.72;100.00;100532.05;110262;1277;22387;-78
2023/11/18 01:55:49;;;;;;;;;;;;;;;3.73;100.00;100533.13;110206;1275;22512;-78
2023/11/18 01:58:19;;;;;;;;;;;;;;;3.74;100.00;100538.14;110268;1277;22817;-78
2023/11/18 02:00:51;;;;;;;;;;;;;;;3.75;100.00;100542.63;110287;1274;22354;-80
2023/11/18 02:03:22;;;;;;;;;;;;;;;3.77;100.00;100542.83;110277;1277;22427;-79
2023/11/18 02:05:52;;;;;;;;;;;;;;;3.77;100.00;100547.48;110262;1277;22397;-79
2023/11/18 02:08:24;;;;;;;;;;;;;;;3.77;100.00;100554.81;110273;1277;23407;-77
2023/11/18 02:10:57;;;;;;;;;;;;;;;3.76;100.00;100558.48;110221;1277;22434;-78
2023/11/18 02:13:32;;;;;;;;;;;;;;;3.73;100.00;100566.17;110280;1274;22397;-79
2023/11/18 02:16:14;;;;;;;;;;;;;;;3.70;100.00;100566.00;110251;1267;23125;-78
2023/11/18 02:18:44;;;;;;;;;;;;;;;3.68;100.00;100569.74;110229;1277;22421;-78
2023/11/18 02:21:15;;;;;;;;;;;;;;;3.66;100.00;100575.77;110286;1269;22375;-78
2023/11/18 02:23:46;;;;;;;;;;;;;;;3.65;100.00;100580.14;110257;1277;22434;-77
2023/11/18 02:26:23;;;;;;;;;;;;;;;3.64;100.00;100584.13;110263;1270;22477;-79
2023/11/18 02:28:54;;;;;;;;;;;;;;;3.63;100.00;100587.60;110276;1270;22342;-78
2023/11/18 02:31:25;;;;;;;;;;;;;;;3.62;100.00;100586.90;110301;1277;22427;-77
2023/11/18 02:34:03;;;;;;;;;;;;;;;3.61;100.00;100585.35;110190;1277;23328;-78
2023/11/18 02:36:38;;;;;;;;;;;;;;;3.61;100.00;100589.61;110286;1277;22949;-80
2023/11/18 02:39:15;;;;;;;;;;;;;;;3.60;100.00;100598.30;110263;1277;22397;-77
2023/11/18 02:41:48;;;;;;;;;;;;;;;3.60;100.00;100597.13;110294;1277;22353;-78
2023/11/18 02:44:20;;;;;;;;;;;;;;;3.60;100.00;100599.64;110232;1272;22327;-77
2023/11/18 02:46:50;;;;;;;;;;;;;;;3.60;100.00;100602.95;110288;1277;22781;-77
2023/11/18 02:49:19;;;;;;;;;;;;;;;3.60;100.00;100603.36;110266;1277;22426;-77
2023/11/18 02:51:49;;;;;;;;;;;;;;;3.60;100.00;100610.91;110251;1277;23269;-77
2023/11/18 02:54:19;;;;;;;;;;;;;;;3.61;100.00;100617.60;110263;1271;23498;-77
2023/11/18 02:56:49;;;;;;;;;;;;;;;3.61;100.00;100621.64;110275;1276;22413;-77
2023/11/18 02:59:30;;;;;;;;;;;;;;;3.61;100.00;100625.41;110263;1277;22429;-77
2023/11/18 03:02:01;;;;;;;;;;;;;;;3.62;100.00;100627.06;110298;1277;22693;-77
2023/11/18 03:04:33;;;;;;;;;;;;;;;3.63;100.00;100624.84;110276;1277;22351;-76
2023/11/18 03:07:03;;;;;;;;;;;;;;;3.62;100.00;100629.67;110283;1277;22419;-76
2023/11/18 03:09:35;;;;;;;;;;;;;;;3.62;100.00;100632.11;110306;1274;22358;-77
2023/11/18 03:12:04;;;;;;;;;;;;;;;3.61;100.00;100638.36;110313;1274;22442;-77
2023/11/18 03:14:35;;;;;;;;;;;;;;;3.60;100.00;100638.76;110244;1277;23058;-77
2023/11/18 03:17:06;;;;;;;;;;;;;;;3.60;100.00;100645.41;110292;1265;22405;-78
2023/11/18 03:19:35;;;;;;;;;;;;;;;3.58;100.00;100647.08;110234;1266;22362;-77
2023/11/18 03:22:05;;;;;;;;;;;;;;;3.57;100.00;100652.70;110278;1276;23183;-78
2023/11/18 03:24:35;;;;;;;;;;;;;;;3.57;100.00;100659.17;110256;1261;22372;-78
2023/11/18 03:27:05;;;;;;;;;;;;;;;3.56;100.00;100661.80;110270;1277;22458;-77
2023/11/18 03:29:35;;;;;;;;;;;;;;;3.54;100.00;100666.25;110267;1277;22345;-79
2023/11/18 03:32:06;;;;;;;;;;;;;;;3.53;100.00;100664.61;110255;1274;23645;-79
2023/11/18 03:34:36;;;;;;;;;;;;;;;3.52;100.00;100668.26;110247;1277;23537;-76
2023/11/18 03:37:07;;;;;;;;;;;;;;;3.52;100.00;100672.51;110235;1277;22372;-79
2023/11/18 03:39:37;;;;;;;;;;;;;;;3.51;100.00;100679.15;110264;1277;23513;-78
2023/11/18 03:42:08;;;;;;;;;;;;;;;3.50;100.00;100678.71;110297;1277;22453;-77
2023/11/18 03:44:38;;;;;;;;;;;;;;;3.49;100.00;100678.33;110281;1277;22316;-77
2023/11/18 03:47:08;;;;;;;;;;;;;;;3.49;100.00;100677.93;110302;1277;23669;-78
2023/11/18 03:49:38;;;;;;;;;;;;;;;3.49;100.00;100678.48;110275;1277;23181;-77
2023/11/18 03:52:08;;;;;;;;;;;;;;;3.48;100.00;100678.73;110279;1277;22432;-77
2023/11/18 03:54:38;;;;;;;;;;;;;;;3.47;100.00;100677.09;110285;1263;23205;-78
2023/11/18 03:57:09;;;;;;;;;;;;;;;3.45;100.00;100679.88;110228;1277;22989;-79
2023/11/18 03:59:40;;;;;;;;;;;;;;;3.46;100.00;100686.11;110273;1267;22393;-77
2023/11/18 04:02:13;;;;;;;;;;;;;;;3.43;100.00;100690.40;110257;1277;23203;-79
2023/11/18 04:04:43;;;;;;;;;;;;;;;3.40;100.00;100688.89;110268;1274;22381;-79
2023/11/18 04:07:14;;;;;;;;;;;;;;;3.36;100.00;100695.64;110297;1268;23215;-79
2023/11/18 04:09:46;;;;;;;;;;;;;;;3.29;100.00;100701.44;110253;1273;22374;-78
2023/11/18 04:12:36;;;;;;;;;;;;;;;3.23;100.00;100703.89;110286;1277;22445;-78
2023/11/18 04:15:07;;;;;;;;;;;;;;;3.19;100.00;100708.61;110275;1268;22350;-78
2023/11/18 04:17:37;;;;;;;;;;;;;;;3.15;100.00;100711.74;110256;1277;22308;-78
2023/11/18 04:20:11;;;;;;;;;;;;;;;3.13;100.00;100708.86;110310;1271;22390;-78
2023/11/18 04:22:41;;;;;;;;;;;;;;;3.11;100.00;100711.16;110285;1277;22478;-78
2023/11/18 04:25:11;;;;;;;;;;;;;;;3.11;100.00;100714.96;110307;1270;22359;-79
2023/11/18 04:27:42;;;;;;;;;;;;;;;3.11;100.00;100718.90;110294;1274;22353;-78
2023/11/18 04:30:13;;;;;;;;;;;;;;;3.10;100.00;100713.39;110303;1277;22353;-79
2023/11/18 04:32:44;;;;;;;;;;;;;;;3.10;100.00;100713.39;110253;1274;22402;-78
2023/11/18 04:35:15;;;;;;;;;;;;;;;3.10;100.00;100715.14;110263;1277;22385;-80
2023/11/18 04:37:46;;;;;;;;;;;;;;;3.10;100.00;100715.92;110302;1277;22360;-78
2023/11/18 04:40:16;;;;;;;;;;;;;;;3.09;100.00;100720.58;110299;1277;22404;-78
2023/11/18 04:42:46;;;;;;;;;;;;;;;3.10;100.00;100722.70;110257;1258;23231;-78
2023/11/18 04:45:17;;;;;;;;;;;;;;;3.09;100.00;100719.33;110281;1257;22407;-78
2023/11/18 04:47:49;;;;;;;;;;;;;;;3.10;100.00;100722.63;110293;1277;22380;-78
2023/11/18 04:50:20;;;;;;;;;;;;;;;3.10;100.00;100722.53;110241;1277;22431;-78
2023/11/18 04:52:50;;;;;;;;;;;;;;;3.10;100.00;100727.26;110267;1273;23573;-78
2023/11/18 04:55:21;;;;;;;;;;;;;;;3.11;100.00;100728.67;110261;1273;22427;-80
2023/11/18 04:57:51;;;;;;;;;;;;;;;3.10;100.00;100729.87;110330;1277;22353;-78
2023/11/18 05:00:21;;;;;;;;;;;;;;;3.11;100.00;100727.25;110298;1277;22406;-80
2023/11/18 05:02:51;;;;;;;;;;;;;;;3.11;100.00;100726.77;110333;1277;22480;-79
2023/11/18 05:05:21;;;;;;;;;;;;;;;3.11;100.00;100731.28;110296;1272;22443;-77
2023/11/18 05:07:50;;;;;;;;;;;;;;;3.10;100.00;100735.93;110299;1271;22393;-78
2023/11/18 05:10:21;;;;;;;;;;;;;;;3.08;100.00;100738.88;110238;1277;22431;-80
2023/11/18 05:12:55;;;;;;;;;;;;;;;3.06;100.00;100738.45;110246;1274;22458;-78
2023/11/18 05:15:25;;;;;;;;;;;;;;;3.04;100.00;100738.39;110240;1278;23484;-79
2023/11/18 05:17:56;;;;;;;;;;;;;;;3.02;100.00;100740.01;110172;1277;22379;-78
2023/11/18 05:20:28;;;;;;;;;;;;;;;2.99;100.00;100739.41;110226;1271;22410;-79
2023/11/18 05:22:59;;;;;;;;;;;;;;;2.98;100.00;100746.20;110247;1277;22407;-79
2023/11/18 05:25:33;;;;;;;;;;;;;;;2.97;100.00;100749.05;110304;1274;22408;-78
2023/11/18 05:28:03;;;;;;;;;;;;;;;2.96;100.00;100752.85;110311;1277;22331;-78
2023/11/18 05:30:35;;;;;;;;;;;;;;;2.96;100.00;100753.48;110300;1277;22414;-79
2023/11/18 05:33:05;;;;;;;;;;;;;;;2.95;100.00;100752.94;110262;1277;22447;-78
2023/11/18 05:35:35;;;;;;;;;;;;;;;2.96;100.00;100757.98;110324;1277;22373;-79
2023/11/18 05:38:06;;;;;;;;;;;;;;;2.96;100.00;100763.72;110308;1276;22373;-79
2023/11/18 05:40:39;;;;;;;;;;;;;;;2.98;100.00;100764.95;110346;1277;22373;-78
2023/11/18 05:43:15;;;;;;;;;;;;;;;2.99;100.00;100770.22;110301;1277;22416;-79
2023/11/18 05:46:14;;;;;;;;;;;;;;;3.00;100.00;100772.96;110338;1274;22368;-78
2023/11/18 05:48:36;;;;;;;;;;;;;;;3.02;100.00;100772.54;110345;1277;22517;-78
2023/11/18 05:51:07;;;;;;;;;;;;;;;3.04;100.00;100775.13;110330;1272;23424;-78
2023/11/18 05:53:40;;;;;;;;;;;;;;;3.04;100.00;100771.73;110235;1271;23743;-78
2023/11/18 05:56:10;;;;;;;;;;;;;;;3.05;100.00;100771.72;110329;1274;22443;-77
2023/11/18 05:58:40;;;;;;;;;;;;;;;3.05;100.00;100769.90;110331;1277;22356;-80
2023/11/18 06:01:11;;;;;;;;;;;;;;;3.05;100.00;100772.41;110300;1277;22379;-79
2023/11/18 06:03:41;;;;;;;;;;;;;;;3.05;100.00;100777.78;110206;1277;23157;-78
2023/11/18 06:06:11;;;;;;;;;;;;;;;3.06;100.00;100784.48;110351;1273;22415;-78
2023/11/18 06:08:42;;;;;;;;;;;;;;;3.06;100.00;100788.87;110338;1276;22330;-78
2023/11/18 06:11:15;;;;;;;;;;;;;;;3.06;100.00;100793.44;110181;1277;22360;-78
2023/11/18 06:13:46;;;;;;;;;;;;;;;3.06;100.00;100795.50;110296;1277;22419;-78
2023/11/18 06:16:18;;;;;;;;;;;;;;;3.03;100.00;100799.48;110332;1274;22335;-78
2023/11/18 06:18:50;;;;;;;;;;;;;;;3.03;100.00;100802.55;110312;1268;22406;-78
2023/11/18 06:21:20;;;;;;;;;;;;;;;3.02;100.00;100803.60;110247;1271;22367;-77
2023/11/18 06:23:50;;;;;;;;;;;;;;;3.01;100.00;100806.29;110154;1278;23182;-77
2023/11/18 06:26:19;;;;;;;;;;;;;;;3.00;100.00;100807.48;110181;1269;22424;-77
2023/11/18 06:28:49;;;;;;;;;;;;;;;3.00;100.00;100806.13;110260;1270;22411;-77
2023/11/18 06:34:40;;;;;;;;;;;;;;;3.03;100.00;100810.35;110294;1277;22463;-77
2023/11/18 06:37:18;;;;;;;;;;;;;;;3.04;100.00;100810.65;110302;1277;22345;-77
2023/11/18 06:39:52;;;;;;;;;;;;;;;3.05;100.00;100808.44;110268;1271;22362;-78
2023/11/18 06:42:23;;;;;;;;;;;;;;;3.05;100.00;100815.61;110224;1277;22417;-79
2023/11/18 06:44:53;;;;;;;;;;;;;;;3.06;100.00;100818.99;110294;1277;22352;-81
2023/11/18 06:47:24;;;;;;;;;;;;;;;3.07;100.00;100828.81;110234;1270;22350;-78
2023/11/18 06:49:54;;;;;;;;;;;;;;;3.07;100.00;100830.55;110241;1277;23191;-78
2023/11/18 06:52:26;;;;;;;;;;;;;;;3.08;100.00;100835.89;110232;1277;22401;-78
2023/11/18 06:54:56;;;;;;;;;;;;;;;3.10;100.00;100841.46;110247;1274;22422;-77
2023/11/18 06:57:26;;;;;;;;;;;;;;;3.12;100.00;100841.69;110262;1277;23234;-77
2023/11/18 06:59:55;;;;;;;;;;;;;;;3.13;100.00;100845.69;110242;1269;22403;-78
2023/11/18 07:02:25;;;;;;;;;;;;;;;3.14;100.00;100850.09;110268;1273;22430;-78
2023/11/18 07:04:55;;;;;;;;;;;;;;;3.16;100.00;100855.67;110271;1274;22401;-80
2023/11/18 07:07:25;;;;;;;;;;;;;;;3.16;100.00;100861.41;110277;1273;23126;-78
2023/11/18 07:09:56;;;;;;;;;;;;;;;3.17;100.00;100864.71;110267;1271;22396;-77
2023/11/18 07:12:36;;;;;;;;;;;;;;;3.18;100.00;100865.73;108609;1269;22934;-74
2023/11/18 07:15:17;;;;;;;;;;;;;;;3.18;100.00;100866.60;107998;1270;22541;-78
2023/11/18 07:17:49;;;;;;;;;;;;;;;3.18;100.00;100870.07;110285;1271;22586;-78
2023/11/18 07:20:22;;;;;;;;;;;;;;;3.17;100.00;100872.12;109031;1256;22469;-75
2023/11/18 07:22:55;;;;;;;;;;;;;;;3.17;100.00;100868.42;110049;1275;22405;-75
2023/11/18 07:25:24;;;;;;;;;;;;;;;3.18;100.00;100865.41;110193;1277;22388;-76
2023/11/18 07:27:57;;;;;;;;;;;;;;;3.18;100.00;100866.27;108724;1275;24694;-78
2023/11/18 07:30:28;;;;;;;;;;;;;;;3.19;100.00;100868.63;107674;1277;25317;-78
2023/11/18 07:33:03;;;;;;;;;;;;;;;3.20;100.00;100869.39;110259;1274;22493;-78
2023/11/18 07:35:36;;;;;;;;;;;;;;;3.22;100.00;100874.66;110271;1275;22466;-79
2023/11/18 07:38:09;;;;;;;;;;;;;;;3.23;100.00;100874.64;108447;1271;23085;-75
2023/11/18 07:40:42;;;;;;;;;;;;;;;3.24;100.00;100879.99;110271;1269;23365;-75
2023/11/18 07:43:21;;;;;;;;;;;;;;;3.24;100.00;100889.86;110138;1275;22635;-74
2023/11/18 07:45:55;;;;;;;;;;;;;;;3.25;100.00;100886.45;110248;1269;22385;-77
2023/11/18 07:48:25;;;;;;;;;;;;;;;3.27;100.00;100888.86;110086;1270;22506;-77
2023/11/18 07:50:54;;;;;;;;;;;;;;;3.29;100.00;100894.13;107685;1269;22513;-78
2023/11/18 07:53:24;;;;;;;;;;;;;;;3.30;100.00;100896.16;107630;1270;25265;-77
2023/11/18 07:55:53;;;;;;;;;;;;;;;3.31;100.00;100893.78;107425;1266;24210;-81
2023/11/18 07:58:24;;;;;;;;;;;;;;;3.33;100.00;100895.02;107505;1274;22509;-78
2023/11/18 08:00:54;;;;;;;;;;;;;;;3.34;100.00;100894.93;107565;1277;22511;-78
2023/11/18 08:03:27;;;;;;;;;;;;;;;3.34;100.00;100894.46;107709;1272;25304;-75
2023/11/18 08:05:59;;;;;;;;;;;;;;;3.34;100.00;100892.96;110256;1277;22563;-75
2023/11/18 08:08:30;;;;;;;;;;;;;;;3.34;100.00;100896.75;110202;1278;22371;-75
2023/11/18 08:11:02;;;;;;;;;;;;;;;3.36;100.00;100895.54;110309;1273;22373;-76
2023/11/18 08:13:33;;;;;;;;;;;;;;;3.39;100.00;100897.48;110237;1277;22450;-75
2023/11/18 08:16:07;;;;;;;;;;;;;;;3.40;100.00;100906.13;110166;1269;23502;-75
2023/11/18 08:18:37;;;;;;;;;;;;;;;3.41;100.00;100903.89;110227;1277;22962;-76
2023/11/18 08:21:08;;;;;;;;;;;;;;;3.43;100.00;100904.66;110218;1274;22400;-75
2023/11/18 08:23:38;;;;;;;;;;;;;;;3.45;100.00;100904.39;110108;1264;22439;-75
2023/11/18 08:26:09;;;;;;;;;;;;;;;3.47;100.00;100905.15;110315;1262;22339;-75
2023/11/18 08:28:42;;;;;;;;;;;;;;;3.49;100.00;100906.33;110276;1277;22357;-75
2023/11/18 08:31:17;;;;;;;;;;;;;;;3.52;100.00;100907.39;110192;1277;22334;-76
2023/11/18 08:33:50;;;;;;;;;;;;;;;3.55;100.00;100903.17;110204;1272;22511;-76
2023/11/18 08:36:19;;;;;;;;;;;;;;;3.59;100.00;100904.91;110260;1271;22361;-76
2023/11/18 08:38:50;;;;;;;;;;;;;;;3.62;100.00;100907.41;110223;1277;22377;-76
2023/11/18 08:41:22;;;;;;;;;;;;;;;3.64;100.00;100912.82;110226;1271;22330;-76
2023/11/18 08:43:53;;;;;;;;;;;;;;;3.66;100.00;100918.14;110284;1277;22546;-77
2023/11/18 08:46:43;;;;;;;;;;;;;;;3.68;100.00;100922.39;110283;1277;22384;-77
2023/11/18 08:49:13;;;;;;;;;;;;;;;3.71;100.00;100927.80;110332;1265;22407;-76
2023/11/18 08:51:44;;;;;;;;;;;;;;;3.72;100.00;100929.84;110222;1271;22473;-76
2023/11/18 08:54:25;;;;;;;;;;;;;;;3.74;100.00;100932.95;110140;1269;22395;-75
2023/11/18 08:56:57;;;;;;;;;;;;;;;3.75;100.00;100933.02;110218;1271;22403;-76
2023/11/18 08:59:30;;;;;;;;;;;;;;;3.76;100.00;100938.70;110250;1271;22477;-76
2023/11/18 09:02:05;;;;;;;;;;;;;;;3.76;100.00;100945.00;110265;1270;22420;-76
2023/11/18 09:04:58;;;;;;;;;;;;;;;3.78;100.00;100952.71;110151;1277;22526;-76
2023/11/18 09:07:28;;;;;;;;;;;;;;;3.78;100.00;100955.08;109904;1269;23315;-75
2023/11/18 09:09:59;;;;;;;;;;;;;;;3.79;100.00;100956.32;107662;1271;25389;-75
2023/11/18 09:12:29;;;;;;;;;;;;;;;3.79;100.00;100962.16;107654;1274;22543;-75
2023/11/18 09:14:59;;;;;;;;;;;;;;;3.78;100.00;100970.92;110237;1277;22365;-79
2023/11/18 09:17:31;;;;;;;;;;;;;;;3.77;100.00;100972.27;110279;1258;22443;-76
2023/11/18 09:20:02;;;;;;;;;;;;;;;3.75;100.00;100974.83;110212;1269;23698;-75
2023/11/18 09:22:39;;;;;;;;;;;;;;;3.76;100.00;100977.27;110319;1271;23592;-75
2023/11/18 09:25:14;;;;;;;;;;;;;;;3.76;100.00;100972.46;110397;1275;22347;-76
2023/11/18 09:27:47;;;;;;;;;;;;;;;3.75;100.00;100981.77;110229;1269;22377;-77
2023/11/18 09:30:19;;;;;;;;;;;;;;;3.74;100.00;100979.91;110285;1276;22415;-77
2023/11/18 09:32:51;;;;;;;;;;;;;;;3.74;100.00;100988.66;110319;1274;22403;-77
2023/11/18 09:35:22;;;;;;;;;;;;;;;3.74;100.00;100988.11;110255;1269;22374;-76
2023/11/18 09:37:59;;;;;;;;;;;;;;;3.73;100.00;100989.93;110260;1272;22376;-76
2023/11/18 09:40:31;;;;;;;;;;;;;;;3.71;100.00;100996.66;110343;1277;22369;-76
2023/11/18 09:43:09;;;;;;;;;;;;;;;3.70;100.00;100994.79;110114;1272;22441;-76
2023/11/18 09:45:39;;;;;;;;;;;;;;;3.69;100.00;100990.54;110271;1271;22339;-76
2023/11/18 09:48:10;;;;;;;;;;;;;;;3.68;100.00;100995.60;110205;1269;22437;-76
2023/11/18 09:50:44;;;;;;;;;;;;;;;3.69;100.00;100999.94;110242;1277;22360;-78
2023/11/18 09:53:14;;;;;;;;;;;;;;;3.67;100.00;101003.50;110131;1271;22407;-76
2023/11/18 09:55:55;;;;;;;;;;;;;;;3.67;100.00;101005.63;110284;1277;22728;-77
2023/11/18 09:58:41;;;;;;;;;;;;;;;3.67;100.00;101003.97;110273;1274;22414;-76
2023/11/18 10:01:13;;;;;;;;;;;;;;;3.68;100.00;101005.78;110232;1270;22359;-77
2023/11/18 10:03:45;;;;;;;;;;;;;;;3.69;100.00;101003.08;110239;1277;23192;-76
2023/11/18 10:06:16;;;;;;;;;;;;;;;3.72;100.00;101005.80;110087;1269;113874;-76
2023/11/18 10:08:48;;;;;;;;;;;;;;;3.74;100.00;101006.65;110360;1275;23187;-76
2023/11/18 10:11:22;;;;;;;;;;;;;;;3.76;100.00;101009.63;110335;1276;23421;-76
2023/11/18 10:13:54;;;;;;;;;;;;;;;3.78;100.00;101012.90;110357;1268;22426;-77
2023/11/18 10:16:30;;;;;;;;;;;;;;;3.81;100.00;101010.02;110325;1276;22479;-77
2023/11/18 10:19:08;;;;;;;;;;;;;;;3.82;100.00;101013.48;110376;1276;22386;-77
2023/11/18 10:21:39;;;;;;;;;;;;;;;3.84;100.00;101019.30;110372;1276;22380;-77
2023/11/18 10:24:14;;;;;;;;;;;;;;;3.84;100.00;101017.23;110343;1276;22423;-76
2023/11/18 10:26:46;;;;;;;;;;;;;;;3.85;100.00;101018.96;110236;1269;23305;-76
2023/11/18 10:29:35;;;;;;;;;;;;;;;3.87;100.00;101023.38;110359;1271;22405;-77
2023/11/18 10:32:15;;;;;;;;;;;;;;;3.88;100.00;101025.09;110384;1276;23106;-76
2023/11/18 10:34:48;;;;;;;;;;;;;;;3.90;100.00;101022.53;110102;1271;23141;-76
2023/11/18 10:37:22;;;;;;;;;;;;;;;3.91;100.00;101030.66;110356;1276;22959;-76
2023/11/18 10:39:57;;;;;;;;;;;;;;;3.91;100.00;101033.11;110164;1269;22399;-77
2023/11/18 10:42:32;;;;;;;;;;;;;;;3.89;100.00;101038.25;110384;1273;22479;-77
2023/11/18 10:45:03;;;;;;;;;;;;;;;3.88;100.00;101040.40;110222;1270;22431;-77
2023/11/18 10:47:38;;;;;;;;;;;;;;;3.88;100.00;101040.71;110364;1276;23531;-77
2023/11/18 10:50:10;;;;;;;;;;;;;;;3.88;100.00;101044.58;110237;1276;22398;-76
2023/11/18 10:52:42;;;;;;;;;;;;;;;3.87;100.00;101044.90;110241;1276;22414;-77
2023/11/18 10:55:19;;;;;;;;;;;;;;;3.87;100.00;101044.91;110397;1272;22407;-77
2023/11/18 10:58:10;;;;;;;;;;;;;;;3.88;100.00;101045.38;110342;1269;22497;-77
2023/11/18 11:00:53;;;;;;;;;;;;;;;3.88;100.00;101044.02;110342;1275;23239;-77
2023/11/18 11:03:24;;;;;;;;;;;;;;;3.89;100.00;101042.27;110325;1275;22411;-78
2023/11/18 11:05:55;;;;;;;;;;;;;;;3.91;100.00;101047.14;110334;1269;23230;-77
2023/11/18 11:08:48;;;;;;;;;;;;;;;3.93;100.00;101053.29;110354;1276;23155;-76
2023/11/18 11:11:21;;;;;;;;;;;;;;;3.94;100.00;101051.92;110168;1277;23592;-76
2023/11/18 11:13:56;;;;;;;;;;;;;;;3.95;100.00;101056.56;110273;1276;22466;-76
2023/11/18 11:16:33;;;;;;;;;;;;;;;3.96;100.00;101054.66;110246;1276;22371;-77
2023/11/18 11:19:08;;;;;;;;;;;;;;;3.98;100.00;101054.23;110396;1276;22386;-76
2023/11/18 11:22:05;;;;;;;;;;;;;;;4.00;100.00;101058.70;109699;1269;22552;-76
2023/11/18 11:24:49;;;;;;;;;;;;;;;4.00;100.00;101062.65;110312;1276;22365;-77
2023/11/18 11:27:29;;;;;;;;;;;;;;;3.95;100.00;101067.69;110361;1276;22364;-77
2023/11/18 11:30:25;;;;;;;;;;;;;;;3.94;100.00;101072.59;110259;1276;22425;-77
2023/11/18 11:33:19;;;;;;;;;;;;;;;3.96;100.00;101074.55;110334;1270;22521;-77
2023/11/18 11:36:11;;;;;;;;;;;;;;;3.95;100.00;101078.98;110229;1269;22344;-76
2023/11/18 11:38:46;;;;;;;;;;;;;;;3.91;100.00;101084.26;109933;1269;194310;-77
2023/11/18 11:41:26;;;;;;;;;;;;;;;3.86;100.00;101088.02;110284;1269;22397;-77
2023/11/18 11:43:58;;;;;;;;;;;;;;;3.84;100.00;101097.18;110211;1269;22457;-77
2023/11/18 11:46:52;;;;;;;;;;;;;;;3.81;100.00;101096.66;110395;1274;22448;-82
2023/11/18 11:50:10;;;;;;;;;;;;;;;3.78;100.00;101093.78;109962;1277;22432;-77
2023/11/18 11:52:47;;;;;;;;;;;;;;;3.78;100.00;101097.27;110030;1280;22467;-77
2023/11/18 11:55:25;;;;;;;;;;;;;;;3.79;100.00;101096.45;109927;1270;22519;-78
2023/11/18 11:58:28;;;;;;;;;;;;;;;3.81;100.00;101097.30;109909;1279;22434;-79
2023/11/18 12:01:40;;;;;;;;;;;;;;;3.82;100.00;101093.81;109740;1285;22469;-81
2023/11/18 12:04:30;;;;;;;;;;;;;;;3.86;100.00;101096.38;109543;1280;22578;-80
2023/11/18 12:07:23;;;;;;;;;;;;;;;3.89;100.00;101093.11;109546;1284;22428;-80
2023/11/18 12:10:15;;;;;;;;;;;;;;;3.93;100.00;101088.55;105420;1288;5456862;-80
2023/11/18 12:13:15;;;;;;;;;;;;;;;4.00;100.00;101097.70;109355;1286;22508;-79
2023/11/18 12:16:10;;;;;;;;;;;;;;;4.05;100.00;101094.95;109556;1280;22636;-79
2023/11/18 12:19:58;;;;;;;;;;;;;;;4.08;100.00;101096.89;109515;1280;22503;-80
2023/11/18 12:23:13;;;;;;;;;;;;;;;4.08;100.00;101098.78;109519;1283;23193;-79
2023/11/18 12:26:29;;;;;;;;;;;;;;;4.10;100.00;101092.70;109584;1281;22607;-77
2023/11/18 12:29:39;;;;;;;;;;;;;;;4.11;100.00;101091.41;109579;1287;22544;-78
2023/11/18 12:32:12;;;;;;;;;;;;;;;4.09;100.00;101100.76;109604;1279;22497;-78
2023/11/18 12:34:55;;;;;;;;;;;;;;;4.08;100.00;101098.00;107313;1287;25253;-79
2023/11/18 12:37:42;;;;;;;;;;;;;;;4.08;100.00;101104.77;106782;1284;23652;-78
2023/11/18 12:40:43;;;;;;;;;;;;;;;4.09;100.00;101096.17;110176;1278;22384;-79
2023/11/18 12:43:18;;;;;;;;;;;;;;;4.11;100.00;101095.05;110143;1278;22474;-81
2023/11/18 12:46:37;;;;;;;;;;;;;;;4.15;100.00;101098.48;110148;1274;22451;-79
2023/11/18 12:49:15;;;;;;;;;;;;;;;4.14;100.00;101102.19;110423;1276;22352;-79
2023/11/18 12:51:48;;;;;;;;;;;;;;;4.14;100.00;101108.03;110267;1269;22404;-78
2023/11/18 12:54:43;;;;;;;;;;;;;;;4.16;100.00;101104.30;110327;1269;22455;-79
2023/11/18 12:57:55;;;;;;;;;;;;;;;4.15;100.00;101105.96;110313;1269;23422;-79
2023/11/18 13:00:30;;;;;;;;;;;;;;;4.15;99.94;101103.12;110130;1274;22405;-77
2023/11/18 13:03:04;;;;;;;;;;;;;;;4.17;100.00;101099.63;110265;1276;23207;-77
2023/11/18 13:05:54;;;;;;;;;;;;;;;4.19;99.93;101104.33;110315;1275;23523;-77
2023/11/18 13:08:29;;;;;;;;;;;;;;;4.18;99.85;101108.13;108838;1269;23379;-76
2023/11/18 13:11:04;;;;;;;;;;;;;;;4.20;99.98;101106.61;107763;1276;22583;-75